| time (UTC) | temp C | wind direction | speed KPH | gust KPH | rain 1hr cm | rain 24hr cm | rain mn cm | humidity % | barometer mb |
| 20260510020413 | 18 | 291 | 4.8 | 14.5 | 0.00 | 0.00 | 0.00 | 68 | 998.8 |
| 20260510015859 | 18 | 268 | 4.8 | 14.5 | 0.00 | 0.00 | 0.00 | 68 | 998.8 |
| 20260510015354 | 18 | 223 | 6.4 | 14.5 | 0.00 | 0.00 | 0.00 | 68 | 998.8 |
| 20260510014845 | 18 | 291 | 4.8 | 11.3 | 0.00 | 0.00 | 0.00 | 69 | 998.9 |
| 20260510014342 | 18 | 265 | 4.8 | 11.3 | 0.00 | 0.00 | 0.00 | 69 | 999.0 |
| 20260510013841 | 18 | 292 | 4.8 | 11.3 | 0.00 | 0.00 | 0.00 | 69 | 999.0 |
| 20260510013334 | 18 | 311 | 4.8 | 16.1 | 0.00 | 0.00 | 0.00 | 69 | 999.0 |
| 20260510012837 | 18 | 311 | 4.8 | 16.1 | 0.00 | 0.00 | 0.00 | 70 | 999.0 |
| 20260510011704 | 17 | 325 | 6.4 | 16.1 | 0.00 | 0.00 | 0.00 | 68 | 998.8 |
| 20260510011151 | 17 | 260 | 6.4 | 14.5 | 0.00 | 0.00 | 0.00 | 68 | 998.9 |
| 20260510010656 | 17 | 275 | 6.4 | 16.1 | 0.00 | 0.00 | 0.00 | 70 | 998.9 |
| 20260510010142 | 17 | 260 | 6.4 | 16.1 | 0.00 | 0.00 | 0.00 | 71 | 998.9 |
| 20260510005652 | 17 | 23 | 8.0 | 16.1 | 0.00 | 0.00 | 0.00 | 70 | 999.0 |
| 20260510005131 | 17 | 279 | 8.0 | 16.1 | 0.00 | 0.00 | 0.00 | 70 | 999.1 |
| 20260510004640 | 17 | 284 | 6.4 | 22.5 | 0.00 | 0.00 | 0.00 | 71 | 999.1 |
| 20260510004121 | 17 | 355 | 8.0 | 22.5 | 0.00 | 0.00 | 0.00 | 72 | 999.3 |
| 20260510003622 | 17 | 301 | 9.7 | 22.5 | 0.00 | 0.00 | 0.00 | 72 | 999.2 |
| 20260510003103 | 17 | 268 | 9.7 | 22.5 | 0.00 | 0.00 | 0.00 | 72 | 999.1 |
| 20260510002558 | 17 | 222 | 8.0 | 24.1 | 0.00 | 0.00 | 0.00 | 73 | 999.1 |
| 20260510002047 | 17 | 304 | 9.7 | 24.1 | 0.00 | 0.00 | 0.00 | 73 | 999.0 |
| 20260510001542 | 17 | 246 | 9.7 | 27.4 | 0.00 | 0.00 | 0.00 | 74 | 999.0 |
| 20260510001036 | 17 | 291 | 11.3 | 27.4 | 0.00 | 0.00 | 0.00 | 75 | 999.1 |
| 20260510000520 | 16 | 277 | 12.9 | 30.6 | 0.00 | 0.00 | 0.00 | 73 | 999.1 |
| 20260509234749 | 16 | 275 | 14.5 | 30.6 | 0.00 | 0.00 | 0.00 | 74 | 999.1 |
| 20260509234248 | 16 | 287 | 12.9 | 27.4 | 0.00 | 0.00 | 0.00 | 74 | 999.2 |
| 20260509233749 | 16 | 258 | 12.9 | 29.0 | 0.00 | 0.00 | 0.00 | 75 | 999.3 |
| 20260509233246 | 16 | 300 | 12.9 | 29.0 | 0.00 | 0.00 | 0.00 | 76 | 999.3 |
| 20260509232732 | 16 | 274 | 14.5 | 29.0 | 0.00 | 0.00 | 0.00 | 75 | 999.5 |
| 20260509231624 | 16 | 253 | 11.3 | 27.4 | 0.00 | 0.00 | 0.00 | 74 | 999.5 |
| 20260509231125 | 16 | 285 | 9.7 | 27.4 | 0.00 | 0.00 | 0.00 | 75 | 999.5 |
| 20260509230633 | 16 | 249 | 11.3 | 22.5 | 0.00 | 0.00 | 0.00 | 75 | 999.5 |
| 20260509230141 | 16 | 262 | 11.3 | 22.5 | 0.00 | 0.00 | 0.00 | 75 | 999.6 |
| 20260509225015 | 16 | 307 | 14.5 | 27.4 | 0.00 | 0.00 | 0.00 | 75 | 999.6 |
| 20260509223905 | 16 | 286 | 6.4 | 17.7 | 0.00 | 0.08 | 0.00 | 76 | 999.5 |
| 20260509221512 | 16 | 222 | 4.8 | 20.9 | 0.00 | 0.20 | 0.00 | 76 | 999.8 |
| 20260509220954 | 15 | 141 | 3.2 | 12.9 | 0.00 | 0.23 | 0.00 | 76 | 999.9 |
| 20260509220448 | 15 | 296 | 6.4 | 16.1 | 0.00 | 0.23 | 0.00 | 76 | 999.9 |
| 20260509215928 | 15 | 283 | 8.0 | 16.1 | 0.00 | 0.23 | 0.00 | 76 | 999.9 |
| 20260509215408 | 15 | 277 | 6.4 | 16.1 | 0.00 | 0.23 | 0.00 | 76 | 999.9 |
| 20260509214915 | 15 | 295 | 4.8 | 12.9 | 0.00 | 0.23 | 0.00 | 76 | 1000.0 |
| 20260509214402 | 15 | 258 | 3.2 | 11.3 | 0.00 | 0.23 | 0.00 | 76 | 999.8 |
| 20260509213842 | 15 | 5 | 4.8 | 16.1 | 0.00 | 0.23 | 0.00 | 77 | 999.9 |
| 20260509213329 | 15 | 273 | 6.4 | 16.1 | 0.00 | 0.23 | 0.00 | 76 | 999.8 |
| 20260509212820 | 15 | 289 | 6.4 | 16.1 | 0.00 | 0.23 | 0.00 | 77 | 999.8 |
| 20260509212310 | 15 | 251 | 6.4 | 16.1 | 0.00 | 0.23 | 0.00 | 77 | 999.9 |
| 20260509211803 | 15 | 296 | 4.8 | 12.9 | 0.00 | 0.23 | 0.00 | 77 | 999.9 |
| 20260509211246 | 15 | 291 | 4.8 | 12.9 | 0.00 | 0.23 | 0.00 | 78 | 999.9 |
| 20260509210738 | 15 | 267 | 6.4 | 12.9 | 0.00 | 0.23 | 0.00 | 78 | 999.9 |
| 20260509210238 | 15 | 289 | 6.4 | 17.7 | 0.00 | 0.23 | 0.00 | 78 | 999.9 |
| 20260509205726 | 15 | 288 | 4.8 | 17.7 | 0.00 | 0.23 | 0.00 | 78 | 999.8 |
| 20260509205220 | 14 | 262 | 6.4 | 17.7 | 0.00 | 0.23 | 0.00 | 78 | 999.8 |
| 20260509204715 | 14 | 291 | 6.4 | 17.7 | 0.00 | 0.23 | 0.00 | 78 | 999.8 |
| 20260509204157 | 14 | 274 | 3.2 | 14.5 | 0.00 | 0.23 | 0.00 | 78 | 999.8 |
| 20260509203638 | 14 | 246 | 3.2 | 16.1 | 0.00 | 0.23 | 0.00 | 78 | 999.8 |
| 20260509203118 | 14 | 303 | 3.2 | 16.1 | 0.00 | 0.23 | 0.00 | 78 | 999.7 |
| 20260509202621 | 13 | 211 | 6.4 | 16.1 | 0.00 | 0.23 | 0.00 | 78 | 999.7 |
| 20260509201442 | 13 | 258 | 1.6 | 8.0 | 0.00 | 0.23 | 0.00 | 79 | 999.4 |
| 20260509200943 | 13 | 321 | 1.6 | 8.0 | 0.00 | 0.23 | 0.00 | 78 | 999.5 |
| 20260509200446 | 13 | 23 | 1.6 | 11.3 | 0.00 | 0.23 | 0.00 | 78 | 999.5 |
| 20260509195934 | 13 | 280 | 3.2 | 11.3 | 0.00 | 0.23 | 0.00 | 78 | 999.4 |
| 20260509195441 | 13 | 282 | 6.4 | 14.5 | 0.00 | 0.23 | 0.00 | 77 | 999.5 |
| 20260509194939 | 13 | 248 | 6.4 | 14.5 | 0.00 | 0.23 | 0.00 | 78 | 999.4 |
| 20260509194437 | 13 | 321 | 4.8 | 16.1 | 0.00 | 0.23 | 0.00 | 78 | 999.4 |
| 20260509193945 | 13 | 302 | 6.4 | 16.1 | 0.00 | 0.23 | 0.00 | 78 | 999.4 |
| 20260509193448 | 13 | 263 | 6.4 | 16.1 | 0.00 | 0.23 | 0.00 | 78 | 999.2 |
| 20260509192946 | 13 | 260 | 8.0 | 16.1 | 0.00 | 0.23 | 0.00 | 77 | 999.2 |
| 20260509192448 | 13 | 267 | 8.0 | 19.3 | 0.00 | 0.23 | 0.00 | 77 | 999.2 |
| 20260509191939 | 13 | 310 | 8.0 | 19.3 | 0.00 | 0.23 | 0.00 | 77 | 999.1 |
| 20260509190149 | 13 | 273 | 8.0 | 17.7 | 0.00 | 0.23 | 0.00 | 78 | 999.0 |
| 20260509185041 | 13 | 296 | 4.8 | 17.7 | 0.00 | 0.23 | 0.00 | 78 | 999.0 |
| 20260509184523 | 13 | 279 | 6.4 | 17.7 | 0.00 | 0.23 | 0.00 | 78 | 998.9 |
| 20260509184021 | 13 | 273 | 6.4 | 17.7 | 0.00 | 0.23 | 0.00 | 78 | 998.9 |
| 20260509183505 | 13 | 310 | 4.8 | 14.5 | 0.00 | 0.23 | 0.00 | 78 | 998.9 |
| 20260509182947 | 13 | 291 | 6.4 | 14.5 | 0.00 | 0.23 | 0.00 | 78 | 998.9 |
| 20260509182437 | 13 | 338 | 6.4 | 14.5 | 0.00 | 0.23 | 0.00 | 78 | 998.8 |
| 20260509181314 | 13 | 294 | 8.0 | 24.1 | 0.00 | 0.23 | 0.00 | 77 | 998.7 |
| 20260509180800 | 13 | 301 | 9.7 | 24.1 | 0.00 | 0.23 | 0.00 | 76 | 998.7 |
| 20260509180247 | 13 | 288 | 9.7 | 24.1 | 0.00 | 0.23 | 0.00 | 75 | 998.8 |
| 20260509175749 | 13 | 320 | 6.4 | 20.9 | 0.00 | 0.23 | 0.00 | 76 | 998.8 |
| 20260509175246 | 13 | 248 | 3.2 | 16.1 | 0.00 | 0.23 | 0.00 | 76 | 998.8 |
| 20260509174133 | 13 | 242 | 3.2 | 24.1 | 0.00 | 0.33 | 0.00 | 75 | 998.8 |
| 20260509173619 | 13 | 294 | 6.4 | 24.1 | 0.00 | 0.33 | 0.00 | 75 | 998.9 |
| 20260509172446 | 13 | 263 | 9.7 | 24.1 | 0.00 | 0.33 | 0.00 | 74 | 999.0 |
| 20260509171951 | 14 | 267 | 9.7 | 19.3 | 0.00 | 0.33 | 0.00 | 75 | 999.0 |
| 20260509170809 | 13 | 284 | 8.0 | 17.7 | 0.00 | 0.33 | 0.00 | 75 | 999.0 |
| 20260509165016 | 13 | 280 | 4.8 | 17.7 | 0.00 | 0.33 | 0.00 | 75 | 998.9 |
| 20260509163840 | 13 | 293 | 4.8 | 16.1 | 0.00 | 0.33 | 0.00 | 75 | 999.0 |
| 20260509163334 | 13 | 317 | 4.8 | 16.1 | 0.00 | 0.33 | 0.00 | 76 | 998.9 |
| 20260509161551 | 13 | 235 | 8.0 | 17.7 | 0.00 | 0.33 | 0.00 | 74 | 998.9 |
| 20260509161040 | 13 | 287 | 6.4 | 17.7 | 0.00 | 0.33 | 0.00 | 75 | 998.8 |
| 20260509160533 | 13 | 251 | 8.0 | 19.3 | 0.00 | 0.33 | 0.00 | 75 | 998.9 |
| 20260509160023 | 13 | 307 | 9.7 | 19.3 | 0.00 | 0.33 | 0.00 | 76 | 998.9 |
| 20260509155525 | 13 | 284 | 8.0 | 29.0 | 0.00 | 0.33 | 0.00 | 76 | 998.9 |
| 20260509155015 | 13 | 326 | 6.4 | 29.0 | 0.00 | 0.33 | 0.00 | 75 | 998.9 |
| 20260509154502 | 13 | 292 | 9.7 | 29.0 | 0.00 | 0.33 | 0.00 | 75 | 998.9 |
| 20260509154006 | 13 | 292 | 11.3 | 29.0 | 0.00 | 0.33 | 0.00 | 75 | 999.0 |
| 20260509152839 | 13 | 268 | 11.3 | 22.5 | 0.00 | 0.33 | 0.00 | 75 | 999.2 |
| 20260509152323 | 13 | 284 | 11.3 | 22.5 | 0.00 | 0.33 | 0.00 | 75 | 999.2 |
| 20260509151801 | 13 | 272 | 11.3 | 20.9 | 0.00 | 0.33 | 0.00 | 74 | 999.2 |
| 20260509151302 | 13 | 251 | 11.3 | 20.9 | 0.00 | 0.33 | 0.00 | 74 | 999.3 |
| 20260509150141 | 13 | 253 | 11.3 | 24.1 | 0.00 | 0.33 | 0.00 | 74 | 999.4 |
| 20260509145637 | 13 | 291 | 9.7 | 27.4 | 0.00 | 0.33 | 0.00 | 74 | 999.4 |
| 20260509145129 | 13 | 260 | 9.7 | 27.4 | 0.00 | 0.33 | 0.00 | 73 | 999.3 |
| 20260509144622 | 13 | 281 | 14.5 | 27.4 | 0.00 | 0.33 | 0.00 | 72 | 999.4 |
| 20260509144111 | 13 | 260 | 16.1 | 27.4 | 0.00 | 0.33 | 0.00 | 72 | 999.5 |
| 20260509143615 | 13 | 282 | 14.5 | 25.7 | 0.00 | 0.33 | 0.00 | 73 | 999.6 |
| 20260509143121 | 13 | 260 | 12.9 | 27.4 | 0.00 | 0.33 | 0.00 | 73 | 999.6 |
| 20260509142617 | 13 | 275 | 11.3 | 27.4 | 0.00 | 0.33 | 0.00 | 73 | 999.7 |
| 20260509142122 | 13 | 262 | 11.3 | 27.4 | 0.00 | 0.33 | 0.00 | 73 | 999.6 |
| 20260509141603 | 13 | 256 | 12.9 | 27.4 | 0.00 | 0.33 | 0.00 | 73 | 999.6 |
| 20260509141111 | 14 | 308 | 12.9 | 27.4 | 0.00 | 0.33 | 0.00 | 72 | 999.6 |
| 20260509140551 | 14 | 291 | 12.9 | 29.0 | 0.00 | 0.33 | 0.00 | 73 | 999.7 |
| 20260509140053 | 14 | 270 | 14.5 | 29.0 | 0.00 | 0.33 | 0.00 | 73 | 999.6 |
| 20260509135552 | 14 | 293 | 12.9 | 29.0 | 0.00 | 0.33 | 0.00 | 73 | 999.6 |
| 20260509135040 | 14 | 291 | 11.3 | 22.5 | 0.00 | 0.33 | 0.00 | 74 | 999.6 |
| 20260509134534 | 14 | 284 | 9.7 | 24.1 | 0.00 | 0.33 | 0.00 | 75 | 999.6 |
| 20260509134035 | 14 | 313 | 9.7 | 24.1 | 0.00 | 0.33 | 0.00 | 74 | 999.5 |
| 20260509132923 | 14 | 268 | 8.0 | 19.3 | 0.00 | 0.33 | 0.00 | 75 | 999.6 |
| 20260509131742 | 14 | 256 | 9.7 | 24.1 | 0.00 | 0.33 | 0.00 | 74 | 999.6 |
| 20260509130607 | 14 | 272 | 9.7 | 32.2 | 0.00 | 0.33 | 0.00 | 74 | 999.5 |
| 20260509130058 | 14 | 312 | 12.9 | 32.2 | 0.00 | 0.33 | 0.00 | 74 | 999.6 |
| 20260509125542 | 14 | 293 | 12.9 | 32.2 | 0.00 | 0.33 | 0.00 | 74 | 999.6 |
| 20260509124408 | 14 | 246 | 14.5 | 25.7 | 0.00 | 0.33 | 0.00 | 73 | 999.5 |
| 20260509123852 | 14 | 283 | 11.3 | 25.7 | 0.00 | 0.33 | 0.00 | 73 | 999.7 |
| 20260509123344 | 14 | 270 | 9.7 | 24.1 | 0.00 | 0.33 | 0.00 | 75 | 999.7 |
| 20260509122830 | 14 | 275 | 9.7 | 24.1 | 0.00 | 0.33 | 0.00 | 75 | 999.8 |
| 20260509122316 | 14 | 215 | 11.3 | 24.1 | 0.00 | 0.33 | 0.00 | 75 | 999.7 |
| 20260509121825 | 14 | 270 | 8.0 | 24.1 | 0.00 | 0.33 | 0.00 | 76 | 999.8 |
| 20260509121330 | 14 | 258 | 8.0 | 20.9 | 0.00 | 0.33 | 0.00 | 76 | 999.9 |
| 20260509120826 | 14 | 265 | 9.7 | 20.9 | 0.00 | 0.33 | 0.00 | 75 | 999.9 |
| 20260509120331 | 14 | 279 | 8.0 | 24.1 | 0.00 | 0.33 | 0.00 | 75 | 999.9 |
| 20260509115208 | 14 | 255 | 12.9 | 24.1 | 0.00 | 0.33 | 0.33 | 75 | 1000.0 |
| 20260509114702 | 14 | 292 | 9.7 | 24.1 | 0.00 | 0.33 | 0.33 | 76 | 1000.1 |
| 20260509113538 | 14 | 246 | 12.9 | 27.4 | 0.00 | 0.33 | 0.33 | 76 | 1000.3 |
| 20260509113031 | 13 | 312 | 12.9 | 27.4 | 0.00 | 0.33 | 0.33 | 76 | 1000.1 |
| 20260509112538 | 13 | 279 | 12.9 | 27.4 | 0.00 | 0.33 | 0.33 | 75 | 1000.2 |
| 20260509112022 | 14 | 273 | 14.5 | 25.7 | 0.00 | 0.36 | 0.33 | 75 | 1000.3 |
| 20260509110851 | 14 | 277 | 14.5 | 37.0 | 0.00 | 0.36 | 0.33 | 74 | 1000.3 |
| 20260509110338 | 14 | 274 | 16.1 | 37.0 | 0.00 | 0.36 | 0.33 | 73 | 1000.4 |
| 20260509105840 | 14 | 248 | 16.1 | 37.0 | 0.00 | 0.36 | 0.33 | 72 | 1000.4 |
| 20260509104036 | 14 | 280 | 12.9 | 29.0 | 0.00 | 0.56 | 0.33 | 72 | 1000.5 |
| 20260509102851 | 14 | 305 | 12.9 | 24.1 | 0.00 | 0.94 | 0.33 | 71 | 1000.6 |
| 20260509102349 | 14 | 260 | 11.3 | 24.1 | 0.00 | 1.04 | 0.33 | 71 | 1000.7 |
| 20260509101854 | 14 | 265 | 11.3 | 25.7 | 0.00 | 1.09 | 0.33 | 71 | 1000.7 |
| 20260509101337 | 15 | 253 | 12.9 | 25.7 | 0.00 | 1.30 | 0.33 | 70 | 1000.7 |
| 20260509100817 | 15 | 265 | 11.3 | 25.7 | 0.00 | 1.30 | 0.33 | 70 | 1000.7 |
| 20260509100313 | 15 | 260 | 11.3 | 24.1 | 0.00 | 1.30 | 0.33 | 69 | 1000.7 |
| 20260509095811 | 15 | 289 | 11.3 | 29.0 | 0.00 | 1.32 | 0.33 | 68 | 1000.7 |
| 20260509095314 | 14 | 260 | 11.3 | 29.0 | 0.00 | 1.35 | 0.33 | 68 | 1000.8 |
| 20260509094800 | 14 | 286 | 12.9 | 29.0 | 0.00 | 1.35 | 0.33 | 68 | 1000.7 |
| 20260509094308 | 14 | 279 | 12.9 | 29.0 | 0.00 | 1.35 | 0.33 | 69 | 1000.8 |
| 20260509093811 | 14 | 275 | 11.3 | 37.0 | 0.00 | 1.35 | 0.33 | 69 | 1000.8 |
| 20260509093300 | 14 | 294 | 11.3 | 37.0 | 0.00 | 1.37 | 0.33 | 69 | 1000.7 |
| 20260509092742 | 14 | 254 | 12.9 | 37.0 | 0.00 | 1.40 | 0.33 | 69 | 1000.6 |
| 20260509092227 | 14 | 317 | 12.9 | 37.0 | 0.00 | 1.45 | 0.33 | 69 | 1000.6 |
| 20260509091713 | 14 | 254 | 12.9 | 27.4 | 0.00 | 1.47 | 0.33 | 70 | 1000.6 |
| 20260509091153 | 14 | 272 | 12.9 | 27.4 | 0.00 | 1.52 | 0.33 | 70 | 1000.7 |
| 20260509090637 | 14 | 239 | 11.3 | 27.4 | 0.00 | 1.57 | 0.33 | 71 | 1000.5 |
| 20260509085455 | 14 | 301 | 11.3 | 27.4 | 0.00 | 1.70 | 0.33 | 71 | 1000.5 |
| 20260509084358 | 14 | 292 | 14.5 | 33.8 | 0.00 | 1.78 | 0.33 | 71 | 1000.4 |
| 20260509083845 | 14 | 289 | 17.7 | 33.8 | 0.00 | 1.78 | 0.33 | 69 | 1000.4 |
| 20260509082742 | 14 | 292 | 16.1 | 30.6 | 0.00 | 1.83 | 0.33 | 68 | 1000.5 |
| 20260509082223 | 14 | 273 | 14.5 | 32.2 | 0.00 | 1.83 | 0.33 | 68 | 1000.5 |
| 20260509081050 | 14 | 307 | 9.7 | 32.2 | 0.00 | 1.83 | 0.33 | 70 | 1000.5 |
| 20260509075307 | 14 | 272 | 12.9 | 32.2 | 0.00 | 1.83 | 0.33 | 70 | 1000.4 |
| 20260509074809 | 14 | 312 | 9.7 | 30.6 | 0.00 | 1.83 | 0.33 | 71 | 1000.4 |
| 20260509074311 | 14 | 222 | 11.3 | 30.6 | 0.00 | 1.85 | 0.33 | 70 | 1000.5 |
| 20260509072524 | 14 | 272 | 9.7 | 22.5 | 0.00 | 1.88 | 0.33 | 69 | 1000.3 |
| 20260509072011 | 14 | 2 | 8.0 | 22.5 | 0.00 | 1.88 | 0.33 | 70 | 999.9 |
| 20260509071457 | 14 | 332 | 9.7 | 24.1 | 0.00 | 1.88 | 0.33 | 69 | 999.5 |
| 20260509070947 | 14 | 300 | 11.3 | 24.1 | 0.00 | 1.88 | 0.33 | 69 | 999.5 |
| 20260509070447 | 14 | 270 | 11.3 | 24.1 | 0.00 | 1.88 | 0.33 | 70 | 999.5 |
| 20260509065328 | 14 | 357 | 8.0 | 20.9 | 0.00 | 1.88 | 0.33 | 71 | 999.8 |
| 20260509064815 | 14 | 112 | 9.7 | 22.5 | 0.00 | 1.88 | 0.33 | 70 | 999.8 |
| 20260509063022 | 14 | 273 | 11.3 | 30.6 | 0.00 | 1.88 | 0.33 | 72 | 999.9 |
| 20260509061806 | 14 | 277 | 14.5 | 30.6 | 0.00 | 1.88 | 0.33 | 71 | 999.9 |
| 20260509061248 | 14 | 279 | 12.9 | 30.6 | 0.00 | 1.88 | 0.33 | 70 | 999.9 |
| 20260509060733 | 14 | 23 | 12.9 | 32.2 | 0.00 | 1.88 | 0.33 | 70 | 999.9 |
| 20260509060224 | 14 | 241 | 12.9 | 32.2 | 0.00 | 1.88 | 0.33 | 70 | 999.8 |
| 20260509055717 | 14 | 258 | 14.5 | 32.2 | 0.00 | 1.88 | 0.33 | 70 | 999.8 |
| 20260509055209 | 14 | 287 | 16.1 | 32.2 | 0.00 | 1.88 | 0.33 | 71 | 999.9 |
| 20260509054701 | 14 | 285 | 14.5 | 30.6 | 0.00 | 1.88 | 0.33 | 71 | 999.9 |
| 20260509054201 | 14 | 284 | 14.5 | 33.8 | 0.00 | 1.88 | 0.33 | 72 | 999.9 |
| 20260509053702 | 14 | 296 | 16.1 | 33.8 | 0.00 | 1.88 | 0.33 | 71 | 999.9 |
| 20260509053141 | 14 | 296 | 14.5 | 33.8 | 0.00 | 1.88 | 0.33 | 71 | 999.9 |
| 20260509052627 | 14 | 281 | 12.9 | 33.8 | 0.00 | 1.88 | 0.33 | 71 | 999.9 |
| 20260509052117 | 14 | 287 | 11.3 | 30.6 | 0.00 | 1.88 | 0.33 | 72 | 1000.0 |
| 20260509051606 | 15 | 262 | 11.3 | 29.0 | 0.00 | 1.88 | 0.33 | 73 | 1000.0 |
| 20260509051053 | 15 | 291 | 12.9 | 29.0 | 0.00 | 1.88 | 0.33 | 73 | 999.9 |
| 20260509045922 | 15 | 262 | 14.5 | 27.4 | 0.00 | 1.88 | 0.33 | 72 | 999.8 |
| 20260509044751 | 15 | 248 | 16.1 | 30.6 | 0.00 | 1.88 | 0.33 | 72 | 1000.0 |
| 20260509044255 | 15 | 281 | 14.5 | 33.8 | 0.00 | 1.88 | 0.33 | 71 | 999.8 |
| 20260509043757 | 15 | 273 | 12.9 | 33.8 | 0.00 | 1.88 | 0.33 | 72 | 999.8 |
| 20260509043238 | 15 | 324 | 14.5 | 33.8 | 0.00 | 1.88 | 0.33 | 72 | 999.8 |
| 20260509042739 | 16 | 286 | 16.1 | 33.8 | 0.00 | 1.88 | 0.33 | 72 | 999.8 |
| 20260509041554 | 16 | 279 | 14.5 | 32.2 | 0.00 | 1.88 | 0.33 | 71 | 1000.0 |
| 20260509041046 | 16 | 300 | 11.3 | 27.4 | 0.00 | 1.88 | 0.33 | 73 | 1000.1 |
| 20260509035937 | 16 | 239 | 11.3 | 38.6 | 0.00 | 1.88 | 0.33 | 73 | 999.9 |
| 20260509035422 | 16 | 267 | 14.5 | 38.6 | 0.00 | 1.88 | 0.33 | 72 | 1000.0 |
| 20260509034230 | 17 | 251 | 9.7 | 30.6 | 0.00 | 1.88 | 0.33 | 71 | 1000.0 |
| 20260509033725 | 17 | 255 | 8.0 | 22.5 | 0.00 | 1.88 | 0.33 | 71 | 1000.1 |
| 20260509033211 | 17 | 311 | 9.7 | 22.5 | 0.00 | 1.88 | 0.33 | 72 | 1000.0 |
| 20260509032653 | 17 | 302 | 9.7 | 25.7 | 0.00 | 1.88 | 0.33 | 73 | 1000.0 |
| 20260509032139 | 17 | 265 | 11.3 | 25.7 | 0.00 | 1.88 | 0.33 | 73 | 1000.0 |
| 20260509031034 | 16 | 297 | 12.9 | 30.6 | 0.00 | 1.88 | 0.33 | 74 | 999.9 |
| 20260509025232 | 17 | 272 | 9.7 | 29.0 | 0.00 | 1.88 | 0.33 | 75 | 999.5 |
| 20260509024731 | 17 | 299 | 9.7 | 29.0 | 0.00 | 1.88 | 0.33 | 75 | 999.4 |
| 20260509024219 | 17 | 253 | 8.0 | 29.0 | 0.00 | 1.88 | 0.33 | 75 | 999.4 |
| 20260509023711 | 17 | 287 | 8.0 | 24.1 | 0.00 | 1.88 | 0.33 | 75 | 999.3 |
| 20260509023153 | 17 | 325 | 9.7 | 22.5 | 0.00 | 1.88 | 0.33 | 75 | 999.3 |
| 20260509022641 | 17 | 325 | 8.0 | 29.0 | 0.00 | 1.88 | 0.33 | 75 | 999.3 |
| 20260509022136 | 17 | 320 | 9.7 | 29.0 | 0.00 | 1.88 | 0.33 | 76 | 999.2 |